• Join FlightAware (Why Join?)
  • Login
  • US Flag 
06:44AM EST


 

Airport Tracker/Info


-or-


 

Live Flight TrackerFlight Track Log ✈ FFT824 ✈ 27-Apr-2014 ✈ KDEN - KMCI

Flight Track Log - Related Links

Times and Time Zones

All times are in EDT time to prevent confusion due to time zone crossing. See the FFT824 flight status page for this flight to view local times or setup timezone preferences in your user account.

Time Position Orientation Groundspeed Altitude Reporting Facility
EDT Latitude Longitude Course Direction KTS MPH feet Rate Location/Type
11:13PM 39.9167 -104.6833 66° East 157 181 7,100  Level Denver TRACON
11:13PM 39.9333 -104.6333 66° East 206 237 7,800 1,340 Climbing Denver TRACON
11:14PM 39.9167 -104.5333 102° East 311 358 9,400 1,895 Climbing Denver TRACON
11:15PM 39.8833 -104.4333 113° Southeast 343 395 11,400 2,779 Climbing Denver TRACON
11:17PM 39.8547 -104.2750 103° East 358 412 15,700 2,517 Climbing Denver Center
11:18PM 39.8622 -104.1389 86° East 360 414 17,400 2,341 Climbing Denver Center
11:19PM 39.8694 -103.9989 86° East 382 440 20,500 2,293 Climbing Denver Center
11:20PM 39.8756 -103.8689 86° East 372 428 22,100 1,770 Climbing Denver Center
11:21PM 39.8847 -103.7183 85° East 407 468 24,100 2,164 Climbing Denver Center
11:22PM 39.9017 -103.5722 81° East 411 473 26,500 2,607 Climbing Denver Center
11:23PM 39.9178 -103.4389 81° East 371 427 29,400 1,805 Climbing Denver Center
11:24PM 39.9333 -103.3022 82° East 378 435 30,200 829 Climbing Denver Center
11:25PM 39.9478 -103.1558 83° East 404 465 31,100 1,131 Climbing Denver Center
11:26PM 39.9689 -102.9778 81° East 410 472 32,500 1,131 Climbing Denver Center
11:27PM 39.9831 -102.8233 83° East 428 493 33,400 934 Climbing Denver Center
11:28PM 39.9911 -102.6747 86° East 436 502 34,400 1,279 Climbing Denver Center
11:29PM 40.0017 -102.5000 85° East 433 498 36,000 780 Climbing Denver Center
11:30PM 40.0103 -102.3467 86° East 439 505 36,000  Level Denver Center
11:31PM 40.0192 -102.1906 86° East 450 518 36,000  Level Denver Center
11:32PM 40.0294 -102.0094 86° East 450 518 36,000 246 Level Denver Center
11:33PM 40.0378 -101.8544 86° East 448 516 36,500 492 Climbing Denver Center
11:34PM 40.0475 -101.6717 86° East 454 522 37,000 244 Climbing Denver Center
11:35PM 40.0553 -101.5172 86° East 452 520 37,000  Level Denver Center
11:36PM 40.0622 -101.3892 86° East 446 513 37,000  Level Denver Center
11:37PM 40.0717 -101.1803 87° East 453 521 37,000  Level Denver Center
11:38PM 40.0775 -101.0531 87° East 448 516 37,000  Level Denver Center
11:39PM 40.0872 -100.8517 86° East 440 506 37,000  Level Denver Center
11:40PM 40.0942 -100.7000 87° East 440 506 37,000  Level Denver Center
11:41PM 40.1003 -100.5486 87° East 440 506 37,000  Level Denver Center
11:42PM 40.1072 -100.3728 87° East 439 505 37,000  Level Denver Center
11:43PM 40.1142 -100.2197 87° East 441 507 37,000  Level Denver Center
11:44PM 40.1208 -100.0408 87° East 443 510 37,000  Level Denver Center
11:45PM 40.1258 -99.8811 88° East 446 513 37,000  Level Denver Center
11:46PM 40.1322 -99.7197 87° East 446 513 37,000  Level Denver Center
11:47PM 40.1372 -99.5567 88° East 448 516 37,000  Level Denver Center
11:48PM 40.1431 -99.3953 87° East 448 516 37,000  Level Denver Center
11:49PM 40.1481 -99.2347 88° East 447 514 37,000  Level Denver Center
11:50PM 40.1519 -99.0753 88° East 445 512 37,000  Level Denver Center
11:51PM 40.1569 -98.9186 88° East 437 503 37,000 -49 Level Denver Center
11:52PM 40.1611 -98.7644 88° East 430 495 36,900 -49 Descending Denver Center
11:53PM 40.1653 -98.6061 88° East 432 497 36,900 89 Level Denver Center
11:55PM 40.1700 -98.3833 88° East 438 504 37,100 44 Climbing Minneapolis Center
11:56PM 40.1733 -98.2222 88° East 440 506 37,000 -49 Descending Minneapolis Center
11:57PM 40.1761 -98.0650 89° East 440 506 37,000  Level Minneapolis Center
11:58PM 40.1792 -97.9083 88° East 438 504 37,000  Level Minneapolis Center
11:59PM 40.1836 -97.7525 88° East 434 499 37,000  Level Minneapolis Center
12:00AM 40.1847 -97.5983 89° East 430 495 37,000  Level Minneapolis Center
12:01AM 40.1881 -97.4453 88° East 426 490 37,000 -197 Level Minneapolis Center
12:02AM 40.1892 -97.2850 89° East 426 490 36,600 -689 Descending Minneapolis Center
12:03AM 40.1894 -97.1306 90° East 426 490 35,600 -934 Descending Minneapolis Center
12:04AM 40.1475 -96.9964 112° Southeast 402 463 34,700 -942 Descending Minneapolis Center
12:05AM 40.1000 -96.8658 115° Southeast 400 460 33,700 -992 Descending Minneapolis Center
12:06AM 40.0542 -96.7361 115° Southeast 399 459 32,700 -984 Descending Minneapolis Center
12:07AM 40.0061 -96.6044 115° Southeast 399 459 31,700 -984 Descending Minneapolis Center
12:08AM 39.9586 -96.4728 115° Southeast 400 460 30,700 -1,436 Descending Minneapolis Center
12:09AM 39.9144 -96.3475 115° Southeast 393 452 28,900 -2,000 Descending Kansas City Center
12:10AM 39.8700 -96.2256 115° Southeast 378 435 26,800 -1,835 Descending Kansas City Center
12:11AM 39.8264 -96.1083 116° Southeast 368 423 25,200 -1,934 Descending Kansas City Center
12:12AM 39.7786 -95.9767 115° Southeast 362 417 22,900 -2,132 Descending Kansas City Center
12:13AM 39.7361 -95.8661 117° Southeast 357 411 20,900 -1,884 Descending Kansas City Center
12:14AM 39.6942 -95.7575 117° Southeast 355 409 19,100 -2,182 Descending Kansas City Center
12:15AM 39.6469 -95.6297 116° Southeast 352 405 16,500 -2,083 Descending Kansas City Center
12:16AM 39.6072 -95.5247 116° Southeast 343 395 14,900 -1,537 Descending Kansas City Center
12:17AM 39.5675 -95.4183 116° Southeast 342 394 13,400 -1,190 Descending Kansas City Center
12:18AM 39.5636 -95.3061 93° East 338 389 12,500 -1,339 Descending Kansas City Center
12:19AM 39.5819 -95.1794 79° East 322 371 10,700 -1,636 Descending Kansas City Center
12:20AM 39.5983 -95.0733 79° East 314 361 9,200 -1,537 Descending Kansas City Center
12:21AM 39.6064 -94.9686 84° East 304 350 7,600 -1,100 Descending Kansas City Center
12:22AM 39.6103 -94.8678 87° East 295 339 7,000 -744 Descending Kansas City Center
12:23AM 39.6153 -94.7672 86° East 252 290 6,100 -893 Descending Kansas City Center
12:24AM 39.6206 -94.6828 85° East 247 284 5,200 -694 Descending Kansas City Center
12:25AM 39.6142 -94.6214 98° East 193 222 4,700 -595 Descending Kansas City Center
12:26AM 39.5650 -94.6250 183° South 161 185 4,000 -347 Descending Kansas City Center
12:27AM 39.5242 -94.6369 193° South 160 184 4,000  Level Kansas City Center
12:28AM 39.4831 -94.6489 193° South 159 183 4,000 -149 Level Kansas City Center
12:29AM 39.4419 -94.6617 193° South 159 183 3,700 -645 Descending Kansas City Center
12:30AM 39.3950 -94.6753 193° South 158 182 2,700 -800 Descending Kansas City Center
12:31AM 39.3583 -94.6864 193° South 142 163 2,100 -645 Descending Kansas City Center
12:32AM 39.3258 -94.6964 193° South 129 148 1,400 -545 Descending Kansas City Center
12:33AM 39.2939 -94.7047 191° South 128 147 1,000 -400 Descending Kansas City Center